sensor_id;sensor_type;location;lat;lon;timestamp;P1;durP1;ratioP1;P2;durP2;ratioP2
30892;SDS011;17595;50.884;4.346;2022-07-29T00:00:37;5.38;;;1.50;;
30892;SDS011;17595;50.884;4.346;2022-07-29T00:03:02;2.60;;;1.40;;
30892;SDS011;17595;50.884;4.346;2022-07-29T00:05:28;2.63;;;1.40;;
30892;SDS011;17595;50.884;4.346;2022-07-29T00:07:54;1.95;;;1.25;;
30892;SDS011;17595;50.884;4.346;2022-07-29T00:10:20;5.50;;;1.52;;
30892;SDS011;17595;50.884;4.346;2022-07-29T00:12:45;5.35;;;1.63;;
30892;SDS011;17595;50.884;4.346;2022-07-29T00:15:11;3.45;;;1.60;;
30892;SDS011;17595;50.884;4.346;2022-07-29T00:17:37;3.35;;;1.30;;
30892;SDS011;17595;50.884;4.346;2022-07-29T00:20:03;5.07;;;1.83;;
30892;SDS011;17595;50.884;4.346;2022-07-29T00:22:29;6.28;;;1.40;;
30892;SDS011;17595;50.884;4.346;2022-07-29T00:24:55;3.60;;;1.70;;
30892;SDS011;17595;50.884;4.346;2022-07-29T00:27:21;4.45;;;1.50;;
30892;SDS011;17595;50.884;4.346;2022-07-29T00:29:46;3.35;;;1.55;;
30892;SDS011;17595;50.884;4.346;2022-07-29T00:32:12;8.65;;;1.80;;
30892;SDS011;17595;50.884;4.346;2022-07-29T00:34:38;6.78;;;2.10;;
30892;SDS011;17595;50.884;4.346;2022-07-29T00:37:22;6.50;;;1.65;;
30892;SDS011;17595;50.884;4.346;2022-07-29T00:39:48;2.75;;;1.38;;
30892;SDS011;17595;50.884;4.346;2022-07-29T00:42:13;5.10;;;1.70;;
30892;SDS011;17595;50.884;4.346;2022-07-29T00:44:39;2.78;;;1.35;;
30892;SDS011;17595;50.884;4.346;2022-07-29T00:47:06;2.40;;;1.33;;
30892;SDS011;17595;50.884;4.346;2022-07-29T00:49:33;3.70;;;1.88;;
30892;SDS011;17595;50.884;4.346;2022-07-29T00:52:06;2.78;;;1.50;;
30892;SDS011;17595;50.884;4.346;2022-07-29T00:54:33;4.00;;;1.40;;
30892;SDS011;17595;50.884;4.346;2022-07-29T00:57:00;3.92;;;1.50;;
30892;SDS011;17595;50.884;4.346;2022-07-29T00:59:27;6.05;;;2.00;;
30892;SDS011;17595;50.884;4.346;2022-07-29T01:01:53;4.10;;;2.10;;
30892;SDS011;17595;50.884;4.346;2022-07-29T01:04:20;3.70;;;1.50;;
30892;SDS011;17595;50.884;4.346;2022-07-29T01:06:47;3.58;;;1.48;;
30892;SDS011;17595;50.884;4.346;2022-07-29T01:09:15;3.92;;;1.50;;
30892;SDS011;17595;50.884;4.346;2022-07-29T01:11:43;4.82;;;1.58;;
30892;SDS011;17595;50.884;4.346;2022-07-29T01:16:42;5.10;;;1.63;;
30892;SDS011;17595;50.884;4.346;2022-07-29T01:22:15;4.07;;;1.33;;
30892;SDS011;17595;50.884;4.346;2022-07-29T01:27:43;4.00;;;1.50;;
30892;SDS011;17595;50.884;4.346;2022-07-29T01:30:17;3.95;;;1.40;;
30892;SDS011;17595;50.884;4.346;2022-07-29T01:32:43;6.85;;;1.92;;
30892;SDS011;17595;50.884;4.346;2022-07-29T01:35:19;2.28;;;1.23;;
30892;SDS011;17595;50.884;4.346;2022-07-29T01:40:27;3.90;;;1.52;;
30892;SDS011;17595;50.884;4.346;2022-07-29T01:42:59;3.00;;;1.38;;
30892;SDS011;17595;50.884;4.346;2022-07-29T01:45:33;3.97;;;1.60;;
30892;SDS011;17595;50.884;4.346;2022-07-29T01:53:21;4.63;;;1.73;;
30892;SDS011;17595;50.884;4.346;2022-07-29T01:55:59;4.50;;;1.95;;
30892;SDS011;17595;50.884;4.346;2022-07-29T01:58:26;4.65;;;1.50;;
30892;SDS011;17595;50.884;4.346;2022-07-29T02:00:55;6.10;;;1.83;;
30892;SDS011;17595;50.884;4.346;2022-07-29T02:03:23;6.55;;;1.60;;
30892;SDS011;17595;50.884;4.346;2022-07-29T02:05:51;3.15;;;1.25;;
30892;SDS011;17595;50.884;4.346;2022-07-29T02:08:17;3.20;;;1.48;;
30892;SDS011;17595;50.884;4.346;2022-07-29T02:10:44;5.75;;;1.75;;
30892;SDS011;17595;50.884;4.346;2022-07-29T02:13:12;3.40;;;1.58;;
30892;SDS011;17595;50.884;4.346;2022-07-29T02:15:39;3.83;;;1.45;;
30892;SDS011;17595;50.884;4.346;2022-07-29T02:18:07;5.30;;;1.45;;
30892;SDS011;17595;50.884;4.346;2022-07-29T02:20:38;4.32;;;1.33;;
30892;SDS011;17595;50.884;4.346;2022-07-29T02:23:07;4.28;;;1.70;;
30892;SDS011;17595;50.884;4.346;2022-07-29T02:25:36;5.25;;;1.90;;
30892;SDS011;17595;50.884;4.346;2022-07-29T02:28:04;11.75;;;1.60;;
30892;SDS011;17595;50.884;4.346;2022-07-29T02:30:31;2.63;;;1.30;;
30892;SDS011;17595;50.884;4.346;2022-07-29T02:32:58;2.83;;;1.33;;
30892;SDS011;17595;50.884;4.346;2022-07-29T02:35:25;4.60;;;1.67;;
30892;SDS011;17595;50.884;4.346;2022-07-29T02:37:51;3.88;;;1.85;;
30892;SDS011;17595;50.884;4.346;2022-07-29T02:40:37;4.72;;;1.80;;
30892;SDS011;17595;50.884;4.346;2022-07-29T02:43:05;8.40;;;1.70;;
30892;SDS011;17595;50.884;4.346;2022-07-29T02:45:32;2.47;;;1.60;;
30892;SDS011;17595;50.884;4.346;2022-07-29T02:47:59;4.63;;;1.75;;
30892;SDS011;17595;50.884;4.346;2022-07-29T02:50:31;3.92;;;1.50;;
30892;SDS011;17595;50.884;4.346;2022-07-29T02:53:05;4.90;;;1.50;;
30892;SDS011;17595;50.884;4.346;2022-07-29T02:55:40;4.35;;;1.90;;
30892;SDS011;17595;50.884;4.346;2022-07-29T02:58:14;3.15;;;1.38;;
30892;SDS011;17595;50.884;4.346;2022-07-29T03:00:55;5.80;;;1.70;;
30892;SDS011;17595;50.884;4.346;2022-07-29T03:03:29;4.50;;;1.33;;
30892;SDS011;17595;50.884;4.346;2022-07-29T03:06:01;5.47;;;1.60;;
30892;SDS011;17595;50.884;4.346;2022-07-29T03:08:28;6.60;;;2.00;;
30892;SDS011;17595;50.884;4.346;2022-07-29T03:10:54;4.63;;;1.92;;
30892;SDS011;17595;50.884;4.346;2022-07-29T03:13:21;5.38;;;2.13;;
30892;SDS011;17595;50.884;4.346;2022-07-29T03:15:46;7.28;;;2.28;;
30892;SDS011;17595;50.884;4.346;2022-07-29T03:18:12;5.10;;;2.05;;
30892;SDS011;17595;50.884;4.346;2022-07-29T03:20:39;3.75;;;1.38;;
30892;SDS011;17595;50.884;4.346;2022-07-29T03:23:05;5.00;;;1.95;;
30892;SDS011;17595;50.884;4.346;2022-07-29T03:25:31;4.75;;;1.80;;
30892;SDS011;17595;50.884;4.346;2022-07-29T03:27:57;4.70;;;1.70;;
30892;SDS011;17595;50.884;4.346;2022-07-29T03:30:22;5.50;;;2.00;;
30892;SDS011;17595;50.884;4.346;2022-07-29T03:32:51;6.35;;;1.88;;
30892;SDS011;17595;50.884;4.346;2022-07-29T03:35:18;8.20;;;2.08;;
30892;SDS011;17595;50.884;4.346;2022-07-29T03:37:46;3.72;;;1.83;;
30892;SDS011;17595;50.884;4.346;2022-07-29T03:40:13;3.95;;;1.73;;
30892;SDS011;17595;50.884;4.346;2022-07-29T03:42:43;4.63;;;1.85;;
30892;SDS011;17595;50.884;4.346;2022-07-29T03:45:11;3.45;;;2.00;;
30892;SDS011;17595;50.884;4.346;2022-07-29T03:47:40;3.35;;;1.83;;
30892;SDS011;17595;50.884;4.346;2022-07-29T03:50:11;6.93;;;2.28;;
30892;SDS011;17595;50.884;4.346;2022-07-29T03:52:38;4.93;;;1.88;;
30892;SDS011;17595;50.884;4.346;2022-07-29T03:55:05;7.93;;;2.00;;
30892;SDS011;17595;50.884;4.346;2022-07-29T03:57:31;4.20;;;2.05;;
30892;SDS011;17595;50.884;4.346;2022-07-29T03:59:58;8.00;;;2.20;;
30892;SDS011;17595;50.884;4.346;2022-07-29T04:02:26;7.65;;;2.22;;
30892;SDS011;17595;50.884;4.346;2022-07-29T04:04:52;4.97;;;1.95;;
30892;SDS011;17595;50.884;4.346;2022-07-29T04:07:18;4.22;;;2.30;;
30892;SDS011;17595;50.884;4.346;2022-07-29T04:09:43;5.70;;;2.30;;
30892;SDS011;17595;50.884;4.346;2022-07-29T04:12:09;7.38;;;2.15;;
30892;SDS011;17595;50.884;4.346;2022-07-29T04:14:35;6.00;;;2.38;;
30892;SDS011;17595;50.884;4.346;2022-07-29T04:17:01;5.20;;;2.60;;
30892;SDS011;17595;50.884;4.346;2022-07-29T04:19:27;4.25;;;2.28;;
30892;SDS011;17595;50.884;4.346;2022-07-29T04:21:53;4.18;;;2.63;;
30892;SDS011;17595;50.884;4.346;2022-07-29T04:24:19;6.15;;;2.28;;
30892;SDS011;17595;50.884;4.346;2022-07-29T04:26:47;4.95;;;2.65;;
30892;SDS011;17595;50.884;4.346;2022-07-29T04:29:13;3.85;;;2.47;;
30892;SDS011;17595;50.884;4.346;2022-07-29T04:31:40;5.40;;;2.53;;
30892;SDS011;17595;50.884;4.346;2022-07-29T04:34:06;5.63;;;2.75;;
30892;SDS011;17595;50.884;4.346;2022-07-29T04:36:32;10.73;;;2.85;;
30892;SDS011;17595;50.884;4.346;2022-07-29T04:38:58;3.42;;;1.90;;
30892;SDS011;17595;50.884;4.346;2022-07-29T04:41:24;5.07;;;2.40;;
30892;SDS011;17595;50.884;4.346;2022-07-29T04:43:49;4.05;;;2.45;;
30892;SDS011;17595;50.884;4.346;2022-07-29T04:46:15;6.97;;;2.47;;
30892;SDS011;17595;50.884;4.346;2022-07-29T04:48:40;7.15;;;2.53;;
30892;SDS011;17595;50.884;4.346;2022-07-29T04:51:06;6.15;;;2.40;;
30892;SDS011;17595;50.884;4.346;2022-07-29T04:53:32;8.02;;;2.72;;
30892;SDS011;17595;50.884;4.346;2022-07-29T04:55:57;2.65;;;2.15;;
30892;SDS011;17595;50.884;4.346;2022-07-29T04:58:23;5.13;;;2.67;;
30892;SDS011;17595;50.884;4.346;2022-07-29T05:00:49;4.65;;;2.72;;
30892;SDS011;17595;50.884;4.346;2022-07-29T05:03:15;5.50;;;2.45;;
30892;SDS011;17595;50.884;4.346;2022-07-29T05:05:41;4.88;;;2.00;;
30892;SDS011;17595;50.884;4.346;2022-07-29T05:08:07;4.57;;;2.83;;
30892;SDS011;17595;50.884;4.346;2022-07-29T05:10:33;5.43;;;2.50;;
30892;SDS011;17595;50.884;4.346;2022-07-29T05:13:02;7.38;;;2.42;;
30892;SDS011;17595;50.884;4.346;2022-07-29T05:15:29;4.45;;;2.42;;
30892;SDS011;17595;50.884;4.346;2022-07-29T05:17:55;6.10;;;2.53;;
30892;SDS011;17595;50.884;4.346;2022-07-29T05:20:21;6.00;;;2.65;;
30892;SDS011;17595;50.884;4.346;2022-07-29T05:22:51;5.00;;;2.95;;
30892;SDS011;17595;50.884;4.346;2022-07-29T05:25:17;7.45;;;2.70;;
30892;SDS011;17595;50.884;4.346;2022-07-29T05:27:42;4.20;;;2.50;;
30892;SDS011;17595;50.884;4.346;2022-07-29T05:30:08;3.85;;;2.55;;
30892;SDS011;17595;50.884;4.346;2022-07-29T05:32:34;4.75;;;2.53;;
30892;SDS011;17595;50.884;4.346;2022-07-29T05:35:00;5.30;;;2.70;;
30892;SDS011;17595;50.884;4.346;2022-07-29T05:37:25;4.22;;;2.50;;
30892;SDS011;17595;50.884;4.346;2022-07-29T05:39:51;4.85;;;2.60;;
30892;SDS011;17595;50.884;4.346;2022-07-29T05:42:17;7.32;;;2.63;;
30892;SDS011;17595;50.884;4.346;2022-07-29T05:44:42;4.07;;;2.45;;
30892;SDS011;17595;50.884;4.346;2022-07-29T05:47:08;3.83;;;2.63;;
30892;SDS011;17595;50.884;4.346;2022-07-29T05:49:34;6.57;;;2.42;;
30892;SDS011;17595;50.884;4.346;2022-07-29T05:51:59;4.30;;;2.85;;
30892;SDS011;17595;50.884;4.346;2022-07-29T05:54:25;6.40;;;3.10;;
30892;SDS011;17595;50.884;4.346;2022-07-29T05:56:50;4.00;;;2.58;;
30892;SDS011;17595;50.884;4.346;2022-07-29T05:59:16;7.05;;;3.10;;
30892;SDS011;17595;50.884;4.346;2022-07-29T06:01:42;7.95;;;3.20;;
30892;SDS011;17595;50.884;4.346;2022-07-29T06:04:07;5.93;;;2.85;;
30892;SDS011;17595;50.884;4.346;2022-07-29T06:06:33;8.82;;;2.85;;
30892;SDS011;17595;50.884;4.346;2022-07-29T06:09:00;6.38;;;2.65;;
30892;SDS011;17595;50.884;4.346;2022-07-29T06:11:26;7.47;;;3.00;;
30892;SDS011;17595;50.884;4.346;2022-07-29T06:13:52;8.13;;;3.10;;
30892;SDS011;17595;50.884;4.346;2022-07-29T06:16:18;8.52;;;3.80;;
30892;SDS011;17595;50.884;4.346;2022-07-29T06:18:43;8.90;;;2.95;;
30892;SDS011;17595;50.884;4.346;2022-07-29T06:21:09;10.73;;;3.00;;
30892;SDS011;17595;50.884;4.346;2022-07-29T06:23:36;7.22;;;2.97;;
30892;SDS011;17595;50.884;4.346;2022-07-29T06:26:02;5.57;;;3.00;;
30892;SDS011;17595;50.884;4.346;2022-07-29T06:28:28;8.38;;;3.33;;
30892;SDS011;17595;50.884;4.346;2022-07-29T06:30:53;7.53;;;2.80;;
30892;SDS011;17595;50.884;4.346;2022-07-29T06:33:19;7.57;;;3.22;;
30892;SDS011;17595;50.884;4.346;2022-07-29T06:35:45;8.43;;;3.13;;
30892;SDS011;17595;50.884;4.346;2022-07-29T06:38:12;7.47;;;2.60;;
30892;SDS011;17595;50.884;4.346;2022-07-29T06:40:44;5.60;;;3.00;;
30892;SDS011;17595;50.884;4.346;2022-07-29T06:43:30;7.18;;;3.15;;
30892;SDS011;17595;50.884;4.346;2022-07-29T06:45:59;5.13;;;3.10;;
30892;SDS011;17595;50.884;4.346;2022-07-29T06:48:26;8.38;;;3.22;;
30892;SDS011;17595;50.884;4.346;2022-07-29T06:50:52;6.90;;;3.13;;
30892;SDS011;17595;50.884;4.346;2022-07-29T06:53:17;6.35;;;3.50;;
30892;SDS011;17595;50.884;4.346;2022-07-29T06:55:43;9.48;;;3.33;;
30892;SDS011;17595;50.884;4.346;2022-07-29T06:58:08;4.50;;;2.92;;
30892;SDS011;17595;50.884;4.346;2022-07-29T07:00:35;6.32;;;3.10;;
30892;SDS011;17595;50.884;4.346;2022-07-29T07:03:01;5.70;;;2.45;;
30892;SDS011;17595;50.884;4.346;2022-07-29T07:05:27;10.93;;;3.40;;
30892;SDS011;17595;50.884;4.346;2022-07-29T07:07:52;4.68;;;3.10;;
30892;SDS011;17595;50.884;4.346;2022-07-29T07:10:18;10.38;;;3.20;;
30892;SDS011;17595;50.884;4.346;2022-07-29T07:12:44;6.05;;;3.03;;
30892;SDS011;17595;50.884;4.346;2022-07-29T07:15:09;6.30;;;2.95;;
30892;SDS011;17595;50.884;4.346;2022-07-29T07:17:35;14.98;;;3.20;;
30892;SDS011;17595;50.884;4.346;2022-07-29T07:20:02;7.45;;;3.00;;
30892;SDS011;17595;50.884;4.346;2022-07-29T07:22:29;7.82;;;3.13;;
30892;SDS011;17595;50.884;4.346;2022-07-29T07:24:55;6.35;;;3.05;;
30892;SDS011;17595;50.884;4.346;2022-07-29T07:27:21;7.15;;;3.13;;
30892;SDS011;17595;50.884;4.346;2022-07-29T07:29:47;5.30;;;2.92;;
30892;SDS011;17595;50.884;4.346;2022-07-29T07:32:12;5.22;;;3.00;;
30892;SDS011;17595;50.884;4.346;2022-07-29T07:34:39;7.45;;;3.13;;
30892;SDS011;17595;50.884;4.346;2022-07-29T07:37:05;5.47;;;3.28;;
30892;SDS011;17595;50.884;4.346;2022-07-29T07:39:30;8.57;;;3.20;;
30892;SDS011;17595;50.884;4.346;2022-07-29T07:41:56;4.68;;;3.25;;
30892;SDS011;17595;50.884;4.346;2022-07-29T07:44:22;6.80;;;3.47;;
30892;SDS011;17595;50.884;4.346;2022-07-29T07:46:47;13.15;;;4.15;;
30892;SDS011;17595;50.884;4.346;2022-07-29T07:49:13;7.63;;;3.50;;
30892;SDS011;17595;50.884;4.346;2022-07-29T07:51:38;9.00;;;3.05;;
30892;SDS011;17595;50.884;4.346;2022-07-29T07:54:04;9.63;;;3.35;;
30892;SDS011;17595;50.884;4.346;2022-07-29T07:56:29;4.65;;;2.70;;
30892;SDS011;17595;50.884;4.346;2022-07-29T07:58:55;5.15;;;2.67;;
30892;SDS011;17595;50.884;4.346;2022-07-29T08:01:21;9.00;;;2.88;;
30892;SDS011;17595;50.884;4.346;2022-07-29T08:03:48;8.57;;;3.60;;
30892;SDS011;17595;50.884;4.346;2022-07-29T08:06:16;6.00;;;2.88;;
30892;SDS011;17595;50.884;4.346;2022-07-29T08:08:42;4.28;;;2.40;;
30892;SDS011;17595;50.884;4.346;2022-07-29T08:11:07;5.93;;;2.83;;
30892;SDS011;17595;50.884;4.346;2022-07-29T08:13:33;8.18;;;2.78;;
30892;SDS011;17595;50.884;4.346;2022-07-29T08:15:58;10.10;;;3.20;;
30892;SDS011;17595;50.884;4.346;2022-07-29T08:18:29;5.93;;;2.88;;
30892;SDS011;17595;50.884;4.346;2022-07-29T08:20:56;8.15;;;2.72;;
30892;SDS011;17595;50.884;4.346;2022-07-29T08:23:22;6.38;;;3.00;;
30892;SDS011;17595;50.884;4.346;2022-07-29T08:25:48;7.57;;;2.90;;
30892;SDS011;17595;50.884;4.346;2022-07-29T08:28:14;6.15;;;2.90;;
30892;SDS011;17595;50.884;4.346;2022-07-29T08:30:40;5.22;;;2.60;;
30892;SDS011;17595;50.884;4.346;2022-07-29T08:33:05;5.50;;;3.00;;
30892;SDS011;17595;50.884;4.346;2022-07-29T08:35:31;5.20;;;2.90;;
30892;SDS011;17595;50.884;4.346;2022-07-29T08:37:57;6.13;;;2.90;;
30892;SDS011;17595;50.884;4.346;2022-07-29T08:40:23;4.50;;;2.70;;
30892;SDS011;17595;50.884;4.346;2022-07-29T08:42:49;7.32;;;2.70;;
30892;SDS011;17595;50.884;4.346;2022-07-29T08:45:15;9.90;;;2.67;;
30892;SDS011;17595;50.884;4.346;2022-07-29T08:47:42;7.40;;;2.45;;
30892;SDS011;17595;50.884;4.346;2022-07-29T08:50:10;6.97;;;3.10;;
30892;SDS011;17595;50.884;4.346;2022-07-29T08:52:37;6.72;;;2.78;;
30892;SDS011;17595;50.884;4.346;2022-07-29T08:55:05;4.22;;;2.47;;
30892;SDS011;17595;50.884;4.346;2022-07-29T08:57:32;4.35;;;2.70;;
30892;SDS011;17595;50.884;4.346;2022-07-29T08:59:59;3.90;;;2.60;;
30892;SDS011;17595;50.884;4.346;2022-07-29T09:02:26;5.15;;;2.67;;
30892;SDS011;17595;50.884;4.346;2022-07-29T09:04:54;3.75;;;2.90;;
30892;SDS011;17595;50.884;4.346;2022-07-29T09:07:22;6.33;;;2.60;;
30892;SDS011;17595;50.884;4.346;2022-07-29T09:09:49;3.78;;;2.13;;
30892;SDS011;17595;50.884;4.346;2022-07-29T09:12:14;4.93;;;2.35;;
30892;SDS011;17595;50.884;4.346;2022-07-29T09:14:41;4.93;;;2.55;;
30892;SDS011;17595;50.884;4.346;2022-07-29T09:17:07;9.52;;;3.00;;
30892;SDS011;17595;50.884;4.346;2022-07-29T09:19:33;6.60;;;2.78;;
30892;SDS011;17595;50.884;4.346;2022-07-29T09:22:01;3.67;;;2.65;;
30892;SDS011;17595;50.884;4.346;2022-07-29T09:27:08;5.38;;;2.60;;
30892;SDS011;17595;50.884;4.346;2022-07-29T09:29:45;4.47;;;2.38;;
30892;SDS011;17595;50.884;4.346;2022-07-29T09:32:11;7.68;;;2.60;;
30892;SDS011;17595;50.884;4.346;2022-07-29T09:34:37;3.65;;;2.35;;
30892;SDS011;17595;50.884;4.346;2022-07-29T09:37:02;7.40;;;2.53;;
30892;SDS011;17595;50.884;4.346;2022-07-29T09:39:29;7.63;;;2.70;;
30892;SDS011;17595;50.884;4.346;2022-07-29T09:41:56;7.78;;;2.10;;
30892;SDS011;17595;50.884;4.346;2022-07-29T09:44:23;7.80;;;2.17;;
30892;SDS011;17595;50.884;4.346;2022-07-29T09:49:22;5.50;;;2.03;;
30892;SDS011;17595;50.884;4.346;2022-07-29T09:51:58;3.75;;;2.53;;
30892;SDS011;17595;50.884;4.346;2022-07-29T09:54:31;3.80;;;2.00;;
30892;SDS011;17595;50.884;4.346;2022-07-29T09:57:04;5.72;;;2.50;;
30892;SDS011;17595;50.884;4.346;2022-07-29T09:59:32;6.65;;;2.55;;
30892;SDS011;17595;50.884;4.346;2022-07-29T10:01:58;4.95;;;2.10;;
30892;SDS011;17595;50.884;4.346;2022-07-29T10:04:36;4.30;;;2.00;;
30892;SDS011;17595;50.884;4.346;2022-07-29T10:07:03;6.03;;;2.35;;
30892;SDS011;17595;50.884;4.346;2022-07-29T10:09:30;4.10;;;2.22;;
30892;SDS011;17595;50.884;4.346;2022-07-29T10:12:29;6.25;;;1.55;;
30892;SDS011;17595;50.884;4.346;2022-07-29T10:14:48;5.43;;;2.03;;
30892;SDS011;17595;50.884;4.346;2022-07-29T10:17:14;4.85;;;1.95;;
30892;SDS011;17595;50.884;4.346;2022-07-29T10:19:41;6.43;;;1.98;;
30892;SDS011;17595;50.884;4.346;2022-07-29T10:22:08;9.18;;;1.90;;
30892;SDS011;17595;50.884;4.346;2022-07-29T10:24:35;3.88;;;1.90;;
30892;SDS011;17595;50.884;4.346;2022-07-29T10:27:04;3.20;;;1.83;;
30892;SDS011;17595;50.884;4.346;2022-07-29T10:29:30;6.05;;;1.67;;
30892;SDS011;17595;50.884;4.346;2022-07-29T10:43:22;5.90;;;2.90;;
30892;SDS011;17595;50.884;4.346;2022-07-29T10:45:54;4.53;;;2.55;;
30892;SDS011;17595;50.884;4.346;2022-07-29T10:48:22;9.40;;;2.42;;
30892;SDS011;17595;50.884;4.346;2022-07-29T10:50:58;7.70;;;2.67;;
30892;SDS011;17595;50.884;4.346;2022-07-29T11:01:42;6.60;;;2.70;;
30892;SDS011;17595;50.884;4.346;2022-07-29T11:04:08;6.10;;;2.63;;
30892;SDS011;17595;50.884;4.346;2022-07-29T11:09:27;8.38;;;3.05;;
30892;SDS011;17595;50.884;4.346;2022-07-29T11:11:55;8.43;;;3.22;;
30892;SDS011;17595;50.884;4.346;2022-07-29T11:14:55;6.75;;;2.75;;
30892;SDS011;17595;50.884;4.346;2022-07-29T11:17:23;5.32;;;2.95;;
30892;SDS011;17595;50.884;4.346;2022-07-29T11:19:48;7.07;;;2.75;;
30892;SDS011;17595;50.884;4.346;2022-07-29T11:22:32;9.38;;;3.08;;
30892;SDS011;17595;50.884;4.346;2022-07-29T11:25:12;11.63;;;3.40;;
30892;SDS011;17595;50.884;4.346;2022-07-29T11:27:43;7.57;;;2.85;;
30892;SDS011;17595;50.884;4.346;2022-07-29T11:30:10;6.30;;;2.85;;
30892;SDS011;17595;50.884;4.346;2022-07-29T11:32:40;8.32;;;4.85;;
30892;SDS011;17595;50.884;4.346;2022-07-29T11:35:14;4.63;;;2.80;;
30892;SDS011;17595;50.884;4.346;2022-07-29T11:37:40;5.25;;;2.05;;
30892;SDS011;17595;50.884;4.346;2022-07-29T11:45:01;5.18;;;2.03;;
30892;SDS011;17595;50.884;4.346;2022-07-29T11:47:35;8.48;;;3.38;;
30892;SDS011;17595;50.884;4.346;2022-07-29T11:50:03;5.65;;;2.50;;
30892;SDS011;17595;50.884;4.346;2022-07-29T11:52:35;7.50;;;4.10;;
30892;SDS011;17595;50.884;4.346;2022-07-29T11:55:29;9.80;;;4.03;;
30892;SDS011;17595;50.884;4.346;2022-07-29T11:57:57;6.85;;;2.75;;
30892;SDS011;17595;50.884;4.346;2022-07-29T12:02:58;5.75;;;3.00;;
30892;SDS011;17595;50.884;4.346;2022-07-29T12:05:35;11.25;;;3.38;;
30892;SDS011;17595;50.884;4.346;2022-07-29T12:08:11;4.38;;;2.80;;
30892;SDS011;17595;50.884;4.346;2022-07-29T12:10:40;6.30;;;2.95;;
30892;SDS011;17595;50.884;4.346;2022-07-29T12:13:07;8.27;;;3.10;;
30892;SDS011;17595;50.884;4.346;2022-07-29T12:15:34;6.25;;;2.03;;
30892;SDS011;17595;50.884;4.346;2022-07-29T12:18:09;9.50;;;3.55;;
30892;SDS011;17595;50.884;4.346;2022-07-29T12:20:35;4.00;;;2.50;;
30892;SDS011;17595;50.884;4.346;2022-07-29T12:23:04;6.32;;;3.03;;
30892;SDS011;17595;50.884;4.346;2022-07-29T12:25:33;8.65;;;3.13;;
30892;SDS011;17595;50.884;4.346;2022-07-29T12:28:01;7.32;;;3.03;;
30892;SDS011;17595;50.884;4.346;2022-07-29T12:30:40;8.10;;;3.22;;
30892;SDS011;17595;50.884;4.346;2022-07-29T12:33:12;6.47;;;3.10;;
30892;SDS011;17595;50.884;4.346;2022-07-29T12:35:37;7.18;;;4.43;;
30892;SDS011;17595;50.884;4.346;2022-07-29T12:38:03;5.53;;;3.22;;
30892;SDS011;17595;50.884;4.346;2022-07-29T12:40:30;10.18;;;3.38;;
30892;SDS011;17595;50.884;4.346;2022-07-29T12:43:10;10.13;;;2.90;;
30892;SDS011;17595;50.884;4.346;2022-07-29T12:45:39;4.90;;;2.50;;
30892;SDS011;17595;50.884;4.346;2022-07-29T12:48:06;2.75;;;2.05;;
30892;SDS011;17595;50.884;4.346;2022-07-29T12:50:35;3.13;;;2.15;;
30892;SDS011;17595;50.884;4.346;2022-07-29T12:53:10;5.35;;;2.33;;
30892;SDS011;17595;50.884;4.346;2022-07-29T12:55:46;4.18;;;2.28;;
30892;SDS011;17595;50.884;4.346;2022-07-29T13:01:07;4.63;;;2.20;;
30892;SDS011;17595;50.884;4.346;2022-07-29T13:03:51;5.45;;;1.92;;
30892;SDS011;17595;50.884;4.346;2022-07-29T13:09:03;8.43;;;2.10;;
30892;SDS011;17595;50.884;4.346;2022-07-29T13:11:44;4.82;;;2.20;;
30892;SDS011;17595;50.884;4.346;2022-07-29T13:14:10;5.13;;;2.10;;
30892;SDS011;17595;50.884;4.346;2022-07-29T13:16:59;7.90;;;2.75;;
30892;SDS011;17595;50.884;4.346;2022-07-29T13:19:35;6.78;;;1.95;;
30892;SDS011;17595;50.884;4.346;2022-07-29T13:22:11;6.50;;;2.10;;
30892;SDS011;17595;50.884;4.346;2022-07-29T13:24:52;7.45;;;1.92;;
30892;SDS011;17595;50.884;4.346;2022-07-29T13:27:28;3.72;;;2.13;;
30892;SDS011;17595;50.884;4.346;2022-07-29T13:29:57;6.50;;;1.75;;
30892;SDS011;17595;50.884;4.346;2022-07-29T13:32:25;7.57;;;2.28;;
30892;SDS011;17595;50.884;4.346;2022-07-29T13:34:52;5.97;;;2.22;;
30892;SDS011;17595;50.884;4.346;2022-07-29T13:37:18;8.85;;;2.60;;
30892;SDS011;17595;50.884;4.346;2022-07-29T13:39:44;5.05;;;1.98;;
30892;SDS011;17595;50.884;4.346;2022-07-29T13:42:09;7.32;;;1.85;;
30892;SDS011;17595;50.884;4.346;2022-07-29T13:44:38;4.60;;;1.40;;
30892;SDS011;17595;50.884;4.346;2022-07-29T13:47:04;7.35;;;2.00;;
30892;SDS011;17595;50.884;4.346;2022-07-29T13:49:30;9.27;;;2.00;;
30892;SDS011;17595;50.884;4.346;2022-07-29T13:51:56;5.60;;;1.55;;
30892;SDS011;17595;50.884;4.346;2022-07-29T13:54:22;3.63;;;1.80;;
30892;SDS011;17595;50.884;4.346;2022-07-29T13:56:49;6.05;;;2.03;;
30892;SDS011;17595;50.884;4.346;2022-07-29T13:59:15;9.98;;;2.13;;
30892;SDS011;17595;50.884;4.346;2022-07-29T14:01:40;4.90;;;1.90;;
30892;SDS011;17595;50.884;4.346;2022-07-29T14:04:07;4.80;;;1.70;;
30892;SDS011;17595;50.884;4.346;2022-07-29T14:06:33;7.80;;;1.40;;
30892;SDS011;17595;50.884;4.346;2022-07-29T14:08:58;10.38;;;2.38;;
30892;SDS011;17595;50.884;4.346;2022-07-29T14:11:25;9.13;;;2.00;;
30892;SDS011;17595;50.884;4.346;2022-07-29T14:13:50;6.43;;;1.60;;
30892;SDS011;17595;50.884;4.346;2022-07-29T14:16:16;5.55;;;2.00;;
30892;SDS011;17595;50.884;4.346;2022-07-29T14:18:42;9.60;;;2.10;;
30892;SDS011;17595;50.884;4.346;2022-07-29T14:21:07;6.20;;;2.28;;
30892;SDS011;17595;50.884;4.346;2022-07-29T14:23:33;4.07;;;1.95;;
30892;SDS011;17595;50.884;4.346;2022-07-29T14:25:59;5.85;;;1.50;;
30892;SDS011;17595;50.884;4.346;2022-07-29T14:28:25;5.30;;;1.45;;
30892;SDS011;17595;50.884;4.346;2022-07-29T14:30:50;3.53;;;1.40;;
30892;SDS011;17595;50.884;4.346;2022-07-29T14:33:16;3.60;;;1.48;;
30892;SDS011;17595;50.884;4.346;2022-07-29T14:35:42;3.58;;;1.65;;
30892;SDS011;17595;50.884;4.346;2022-07-29T14:38:08;3.03;;;1.60;;
30892;SDS011;17595;50.884;4.346;2022-07-29T14:40:34;4.75;;;1.55;;
30892;SDS011;17595;50.884;4.346;2022-07-29T14:42:59;3.45;;;1.45;;
30892;SDS011;17595;50.884;4.346;2022-07-29T14:45:26;6.00;;;1.80;;
30892;SDS011;17595;50.884;4.346;2022-07-29T14:47:53;4.40;;;1.50;;
30892;SDS011;17595;50.884;4.346;2022-07-29T14:50:18;4.70;;;1.63;;
30892;SDS011;17595;50.884;4.346;2022-07-29T14:52:44;4.90;;;1.65;;
30892;SDS011;17595;50.884;4.346;2022-07-29T14:55:10;7.95;;;2.00;;
30892;SDS011;17595;50.884;4.346;2022-07-29T14:57:35;5.90;;;1.52;;
30892;SDS011;17595;50.884;4.346;2022-07-29T15:00:02;4.40;;;1.80;;
30892;SDS011;17595;50.884;4.346;2022-07-29T15:02:30;4.85;;;1.58;;
30892;SDS011;17595;50.884;4.346;2022-07-29T15:04:55;3.75;;;1.77;;
30892;SDS011;17595;50.884;4.346;2022-07-29T15:07:21;10.05;;;2.45;;
30892;SDS011;17595;50.884;4.346;2022-07-29T15:09:47;5.75;;;2.33;;
30892;SDS011;17595;50.884;4.346;2022-07-29T15:12:12;5.78;;;1.75;;
30892;SDS011;17595;50.884;4.346;2022-07-29T15:14:38;3.75;;;1.80;;
30892;SDS011;17595;50.884;4.346;2022-07-29T15:17:03;5.18;;;2.42;;
30892;SDS011;17595;50.884;4.346;2022-07-29T15:19:29;6.18;;;2.40;;
30892;SDS011;17595;50.884;4.346;2022-07-29T15:21:55;5.30;;;2.10;;
30892;SDS011;17595;50.884;4.346;2022-07-29T15:24:21;5.13;;;2.47;;
30892;SDS011;17595;50.884;4.346;2022-07-29T15:26:47;6.25;;;2.15;;
30892;SDS011;17595;50.884;4.346;2022-07-29T15:29:13;4.93;;;2.10;;
30892;SDS011;17595;50.884;4.346;2022-07-29T15:31:39;5.93;;;2.80;;
30892;SDS011;17595;50.884;4.346;2022-07-29T15:34:05;8.35;;;3.03;;
30892;SDS011;17595;50.884;4.346;2022-07-29T15:36:30;6.30;;;2.65;;
30892;SDS011;17595;50.884;4.346;2022-07-29T15:38:56;5.65;;;2.55;;
30892;SDS011;17595;50.884;4.346;2022-07-29T15:41:22;5.53;;;2.80;;
30892;SDS011;17595;50.884;4.346;2022-07-29T15:43:48;4.88;;;2.67;;
30892;SDS011;17595;50.884;4.346;2022-07-29T15:46:15;6.93;;;2.90;;
30892;SDS011;17595;50.884;4.346;2022-07-29T15:49:01;6.07;;;2.70;;